Airfield :
LOGIN :

Register | Disclaimer

   EN    FR    IT 

 










Legend :    VFR   Marginal VFR   IFR   Intensive IFR   Very Intensive IFR
Visi :
Ceiling :
>= 8 km
>= 3000ft
5 to 8 km
1000 to 3000 ft
1500m to 5 km
500 to 1000 ft
800 to 1500m
200 to 500 ft
< 800m
< 200 ft
Symbols :   Thunderstorms  Fog  Heavy snow  Heavy precipitations  Wind > 20 kt
SIGMETs :     Misc.  Thunderstorms  Icing  Turbulence  Mountain Waves  Volcanic Ashes






- Airport Elevation : 995 ft
- IATA code : KTW


EPKT - Katowice

CURRENT METAR :
  • 290330Z 24005KT 8000 NSC 02/M03 Q1011

EXPIRED METARs :
  • 290300Z 24005KT 9000 NSC 03/M02 Q1011
  • 290230Z 24004KT 8000 NSC 03/M02 Q1011
  • 290200Z 23005KT 6000 NSC 04/M01 Q1011
  • 290130Z 22003KT 5000 BR NSC 03/00 Q1011
  • 290100Z 26006KT 7000 NSC 01/M01 Q1011

TAF TAF EPKT
Valid from the 29 at 00:00 until the 30 at 00:00 UTC


282330Z 2900/2924 VRB02KT 7000 NSC
TEMPO 2900/2903 2000 BR
BECMG 2903/2906 29010KT
TEMPO 2909/2912 29015G25KT
BECMG 2912/2914 35018G28KT
TEMPO 2914/2918 4000 SHRA BKN020CB
BECMG 2916/2918 BKN014
TEMPO 2918/2924 1500 SHSN BKN005 BKN012CB



MET'MAP, your aeronautical weather chart ! - Copyright ORBIFLY December 2007 - Disclaimer

ORBIFLY MET'MAP TEAM :

Programming & Development : Alexandra Zaïnal
Concept & original design : Baudouin d'Aumeries
Assistance for programming : Marc-Olivier Méhu
Technical & hardware support : Manuel Goepfert

Contact : metmap@orbifly.com




SOURCES & CREDITS :

   NOAA